Airfield :







YOU CAN JOIN US ON...

 
LOGIN :

Register | Disclaimer

   EN    FR    IT 

 









Legend :    VFR   Marginal VFR   IFR   Intensive IFR   Very Intensive IFR
Visi :
Ceiling :
>= 8 km
>= 3000ft
5 to 8 km
1000 to 3000 ft
1500m to 5 km
500 to 1000 ft
800 to 1500m
200 to 500 ft
< 800m
< 200 ft
Symbols :   Thunderstorms  Fog  Heavy snow  Heavy precipitations  Wind > 20 kt







- Airport Elevation : 180 ft
- IATA code : YZV


CYZV - Sept-Iles

CURRENT METAR :
  • 202000Z 17003KT 110V200 30SM FEW050 SCT180 OVC220 19/15 A2953 RMK CU1AC3CC4 SLP002 DENSITY ALT 1200FT

EXPIRED METARs :
  • 201900Z 17007KT 30SM FEW050 FEW140 BKN220 19/15 A2954 RMK CU1AC1CC5 CU TR SLP004 DENSITY ALT 1200FT
  • 201800Z 16007KT 30SM FEW040 SCT180 SCT260 19/16 A2954 RMK CU1AC2CI1 SLP007 DENSITY ALT 1200FT
  • 201700Z 18005KT 160V220 30SM FEW025 BKN180 BKN260 18/15 A2956 RMK CU2AC4CI1 SLP013 DENSITY ALT 1000FT

TAF TAF CYZV
Valid from the 20 at 18:00 until the 21 at 18:00 UTC


201738Z 2018/2118 18005KT P6SM FEW030 BKN180
FM202000 23012KT P6SM -SHRA SCT030 BKN100
PROB30 2020/2023 3SM TSRA BR BKN030CB
FM210200 30005KT P6SM BKN050
FM210600 35005KT P6SM SCT050 RMK NXT FCST BY 210000Z
CZUL FIR / North America



MET'MAP, your aeronautical weather chart ! - Copyright ORBIFLY December 2007 - Disclaimer

ORBIFLY MET'MAP TEAM :

Programming & Development : Alexandra Zaïnal
Concept & Development : Baudouin d'Aumeries
Co-Development & Prog : Marc-Olivier Méhu
Technical & hardware support : Manuel Goepfert

Contact : metmap@orbifly.com




SOURCES & CREDITS :

   NOAA